sensor_id;sensor_type;location;lat;lon;timestamp;temperature;humidity
34201;DHT22;20469;55.638;37.670;2023-05-01T00:00:59;7.30;99.90
34201;DHT22;20469;55.638;37.670;2023-05-01T00:03:27;7.30;99.90
34201;DHT22;20469;55.638;37.670;2023-05-01T00:06:01;7.30;99.90
34201;DHT22;20469;55.638;37.670;2023-05-01T00:08:30;7.20;99.90
34201;DHT22;20469;55.638;37.670;2023-05-01T00:11:05;7.20;99.90
34201;DHT22;20469;55.638;37.670;2023-05-01T00:13:35;7.20;99.90
34201;DHT22;20469;55.638;37.670;2023-05-01T00:16:10;7.20;99.90
34201;DHT22;20469;55.638;37.670;2023-05-01T00:18:38;7.30;99.90
34201;DHT22;20469;55.638;37.670;2023-05-01T00:21:05;7.40;99.90
34201;DHT22;20469;55.638;37.670;2023-05-01T00:23:32;7.30;99.90
34201;DHT22;20469;55.638;37.670;2023-05-01T00:25:59;7.10;99.90
34201;DHT22;20469;55.638;37.670;2023-05-01T00:28:27;7.20;99.90
34201;DHT22;20469;55.638;37.670;2023-05-01T00:30:54;7.30;99.90
34201;DHT22;20469;55.638;37.670;2023-05-01T00:33:22;7.40;99.90
34201;DHT22;20469;55.638;37.670;2023-05-01T00:35:49;7.30;99.90
34201;DHT22;20469;55.638;37.670;2023-05-01T00:38:18;7.40;99.90
34201;DHT22;20469;55.638;37.670;2023-05-01T00:40:46;7.40;99.90
34201;DHT22;20469;55.638;37.670;2023-05-01T00:43:13;7.40;99.90
34201;DHT22;20469;55.638;37.670;2023-05-01T00:45:43;7.40;99.90
34201;DHT22;20469;55.638;37.670;2023-05-01T00:48:12;7.40;99.90
34201;DHT22;20469;55.638;37.670;2023-05-01T00:50:40;7.50;99.90
34201;DHT22;20469;55.638;37.670;2023-05-01T00:53:07;7.30;99.90
34201;DHT22;20469;55.638;37.670;2023-05-01T00:55:34;7.40;99.90
34201;DHT22;20469;55.638;37.670;2023-05-01T00:58:02;7.30;99.90
34201;DHT22;20469;55.638;37.670;2023-05-01T01:00:30;7.50;99.90
34201;DHT22;20469;55.638;37.670;2023-05-01T01:02:58;7.30;99.90
34201;DHT22;20469;55.638;37.670;2023-05-01T01:05:27;7.40;99.90
34201;DHT22;20469;55.638;37.670;2023-05-01T01:08:02;7.40;99.90
34201;DHT22;20469;55.638;37.670;2023-05-01T01:10:42;7.40;99.90
34201;DHT22;20469;55.638;37.670;2023-05-01T01:16:20;7.70;99.90
34201;DHT22;20469;55.638;37.670;2023-05-01T01:21:44;7.30;99.90
34201;DHT22;20469;55.638;37.670;2023-05-01T01:24:32;7.50;99.90
34201;DHT22;20469;55.638;37.670;2023-05-01T01:29:54;7.20;99.90
34201;DHT22;20469;55.638;37.670;2023-05-01T01:35:26;7.20;99.90
34201;DHT22;20469;55.638;37.670;2023-05-01T01:38:28;7.20;99.90
34201;DHT22;20469;55.638;37.670;2023-05-01T01:41:11;7.20;99.90
34201;DHT22;20469;55.638;37.670;2023-05-01T01:43:48;7.40;99.90
34201;DHT22;20469;55.638;37.670;2023-05-01T01:46:19;7.40;99.90
34201;DHT22;20469;55.638;37.670;2023-05-01T01:48:49;7.30;99.90
34201;DHT22;20469;55.638;37.670;2023-05-01T01:51:18;7.30;99.90
34201;DHT22;20469;55.638;37.670;2023-05-01T01:53:50;7.30;99.90
34201;DHT22;20469;55.638;37.670;2023-05-01T01:56:20;7.10;99.90
34201;DHT22;20469;55.638;37.670;2023-05-01T01:58:48;7.30;99.90
34201;DHT22;20469;55.638;37.670;2023-05-01T02:01:17;7.50;99.90
34201;DHT22;20469;55.638;37.670;2023-05-01T02:03:46;7.40;99.90
34201;DHT22;20469;55.638;37.670;2023-05-01T02:06:14;7.40;99.90
34201;DHT22;20469;55.638;37.670;2023-05-01T02:08:43;7.50;99.90
34201;DHT22;20469;55.638;37.670;2023-05-01T02:11:13;7.60;99.90
34201;DHT22;20469;55.638;37.670;2023-05-01T02:13:41;7.50;99.90
34201;DHT22;20469;55.638;37.670;2023-05-01T02:16:32;7.50;99.90
34201;DHT22;20469;55.638;37.670;2023-05-01T02:19:01;7.50;99.90
34201;DHT22;20469;55.638;37.670;2023-05-01T02:21:32;7.50;99.90
34201;DHT22;20469;55.638;37.670;2023-05-01T02:24:01;7.50;99.90
34201;DHT22;20469;55.638;37.670;2023-05-01T02:26:28;7.50;99.90
34201;DHT22;20469;55.638;37.670;2023-05-01T02:28:56;7.60;99.90
34201;DHT22;20469;55.638;37.670;2023-05-01T02:31:25;7.50;99.90
34201;DHT22;20469;55.638;37.670;2023-05-01T02:33:52;7.70;99.90
34201;DHT22;20469;55.638;37.670;2023-05-01T02:36:19;7.80;99.90
34201;DHT22;20469;55.638;37.670;2023-05-01T02:38:46;7.70;99.90
34201;DHT22;20469;55.638;37.670;2023-05-01T02:41:19;7.60;99.90
34201;DHT22;20469;55.638;37.670;2023-05-01T02:43:52;7.70;99.90
34201;DHT22;20469;55.638;37.670;2023-05-01T02:46:23;7.80;99.90
34201;DHT22;20469;55.638;37.670;2023-05-01T02:48:52;7.70;99.90
34201;DHT22;20469;55.638;37.670;2023-05-01T02:51:20;7.70;99.90
34201;DHT22;20469;55.638;37.670;2023-05-01T02:53:48;7.70;99.90
34201;DHT22;20469;55.638;37.670;2023-05-01T02:56:16;7.70;99.90
34201;DHT22;20469;55.638;37.670;2023-05-01T02:58:43;7.70;99.90
34201;DHT22;20469;55.638;37.670;2023-05-01T03:01:10;7.80;99.90
34201;DHT22;20469;55.638;37.670;2023-05-01T03:03:38;7.80;99.90
34201;DHT22;20469;55.638;37.670;2023-05-01T03:06:05;7.70;99.90
34201;DHT22;20469;55.638;37.670;2023-05-01T03:08:32;7.90;99.90
34201;DHT22;20469;55.638;37.670;2023-05-01T03:11:04;7.90;99.90
34201;DHT22;20469;55.638;37.670;2023-05-01T03:13:34;7.90;99.90
34201;DHT22;20469;55.638;37.670;2023-05-01T03:16:01;8.00;99.90
34201;DHT22;20469;55.638;37.670;2023-05-01T03:18:30;8.00;99.90
34201;DHT22;20469;55.638;37.670;2023-05-01T03:20:57;7.90;99.90
34201;DHT22;20469;55.638;37.670;2023-05-01T03:23:25;7.80;99.90
34201;DHT22;20469;55.638;37.670;2023-05-01T03:25:53;8.10;99.90
34201;DHT22;20469;55.638;37.670;2023-05-01T03:28:20;8.10;99.90
34201;DHT22;20469;55.638;37.670;2023-05-01T03:30:50;8.00;99.90
34201;DHT22;20469;55.638;37.670;2023-05-01T03:33:20;7.90;99.90
34201;DHT22;20469;55.638;37.670;2023-05-01T03:35:47;8.00;99.90
34201;DHT22;20469;55.638;37.670;2023-05-01T03:38:15;8.00;99.90
34201;DHT22;20469;55.638;37.670;2023-05-01T03:40:42;8.20;99.90
34201;DHT22;20469;55.638;37.670;2023-05-01T03:43:09;8.30;99.90
34201;DHT22;20469;55.638;37.670;2023-05-01T03:45:36;8.30;99.90
34201;DHT22;20469;55.638;37.670;2023-05-01T03:48:04;8.40;99.90
34201;DHT22;20469;55.638;37.670;2023-05-01T03:50:31;8.50;99.90
34201;DHT22;20469;55.638;37.670;2023-05-01T03:52:58;8.60;99.90
34201;DHT22;20469;55.638;37.670;2023-05-01T03:55:26;8.50;99.90
34201;DHT22;20469;55.638;37.670;2023-05-01T03:57:53;8.40;99.90
34201;DHT22;20469;55.638;37.670;2023-05-01T04:00:20;8.40;99.90
34201;DHT22;20469;55.638;37.670;2023-05-01T04:02:47;8.40;99.90
34201;DHT22;20469;55.638;37.670;2023-05-01T04:05:15;8.40;99.90
34201;DHT22;20469;55.638;37.670;2023-05-01T04:07:42;8.50;99.90
34201;DHT22;20469;55.638;37.670;2023-05-01T04:10:09;8.40;99.90
34201;DHT22;20469;55.638;37.670;2023-05-01T04:12:36;8.40;99.90
34201;DHT22;20469;55.638;37.670;2023-05-01T04:15:04;8.50;99.90
34201;DHT22;20469;55.638;37.670;2023-05-01T04:17:34;8.60;99.90
34201;DHT22;20469;55.638;37.670;2023-05-01T04:20:03;8.50;99.90
34201;DHT22;20469;55.638;37.670;2023-05-01T04:22:33;8.50;99.90
34201;DHT22;20469;55.638;37.670;2023-05-01T04:25:00;8.50;99.90
34201;DHT22;20469;55.638;37.670;2023-05-01T04:27:30;8.80;99.90
34201;DHT22;20469;55.638;37.670;2023-05-01T04:29:58;8.80;99.90
34201;DHT22;20469;55.638;37.670;2023-05-01T04:32:25;8.70;99.90
34201;DHT22;20469;55.638;37.670;2023-05-01T04:34:53;8.70;99.90
34201;DHT22;20469;55.638;37.670;2023-05-01T04:37:20;8.80;99.90
34201;DHT22;20469;55.638;37.670;2023-05-01T04:39:47;8.80;99.90
34201;DHT22;20469;55.638;37.670;2023-05-01T04:42:14;8.70;99.90
34201;DHT22;20469;55.638;37.670;2023-05-01T04:44:41;8.70;99.90
34201;DHT22;20469;55.638;37.670;2023-05-01T04:47:09;8.80;99.90
34201;DHT22;20469;55.638;37.670;2023-05-01T04:49:36;8.90;99.90
34201;DHT22;20469;55.638;37.670;2023-05-01T04:52:03;9.00;99.90
34201;DHT22;20469;55.638;37.670;2023-05-01T04:54:30;9.00;99.90
34201;DHT22;20469;55.638;37.670;2023-05-01T04:56:57;8.90;99.90
34201;DHT22;20469;55.638;37.670;2023-05-01T04:59:24;8.90;99.90
34201;DHT22;20469;55.638;37.670;2023-05-01T05:01:52;8.90;99.90
34201;DHT22;20469;55.638;37.670;2023-05-01T05:04:19;8.80;99.90
34201;DHT22;20469;55.638;37.670;2023-05-01T05:06:46;8.90;99.90
34201;DHT22;20469;55.638;37.670;2023-05-01T05:09:33;8.80;99.90
34201;DHT22;20469;55.638;37.670;2023-05-01T05:12:00;8.90;99.90
34201;DHT22;20469;55.638;37.670;2023-05-01T05:14:30;9.20;99.90
34201;DHT22;20469;55.638;37.670;2023-05-01T05:19:43;9.20;99.90
34201;DHT22;20469;55.638;37.670;2023-05-01T05:22:11;8.90;99.90
34201;DHT22;20469;55.638;37.670;2023-05-01T05:24:38;9.00;99.90
34201;DHT22;20469;55.638;37.670;2023-05-01T05:27:05;9.30;99.90
34201;DHT22;20469;55.638;37.670;2023-05-01T05:29:33;9.00;99.90
34201;DHT22;20469;55.638;37.670;2023-05-01T05:34:47;9.10;99.90
34201;DHT22;20469;55.638;37.670;2023-05-01T05:37:14;9.20;99.90
34201;DHT22;20469;55.638;37.670;2023-05-01T05:39:41;9.00;99.90
34201;DHT22;20469;55.638;37.670;2023-05-01T05:42:08;9.20;99.90
34201;DHT22;20469;55.638;37.670;2023-05-01T05:44:35;9.10;99.90
34201;DHT22;20469;55.638;37.670;2023-05-01T05:47:02;9.10;99.90
34201;DHT22;20469;55.638;37.670;2023-05-01T05:52:54;9.10;99.90
34201;DHT22;20469;55.638;37.670;2023-05-01T05:55:22;9.40;99.90
34201;DHT22;20469;55.638;37.670;2023-05-01T05:58:07;9.50;99.90
34201;DHT22;20469;55.638;37.670;2023-05-01T06:00:35;9.40;99.90
34201;DHT22;20469;55.638;37.670;2023-05-01T06:03:02;9.60;99.90
34201;DHT22;20469;55.638;37.670;2023-05-01T06:05:30;9.10;99.90
34201;DHT22;20469;55.638;37.670;2023-05-01T06:07:57;9.20;99.90
34201;DHT22;20469;55.638;37.670;2023-05-01T06:10:24;9.40;99.90
34201;DHT22;20469;55.638;37.670;2023-05-01T06:12:51;9.30;99.90
34201;DHT22;20469;55.638;37.670;2023-05-01T06:15:29;9.60;99.90
34201;DHT22;20469;55.638;37.670;2023-05-01T06:17:56;9.60;99.90
34201;DHT22;20469;55.638;37.670;2023-05-01T06:20:23;9.80;99.90
34201;DHT22;20469;55.638;37.670;2023-05-01T06:22:50;9.90;99.90
34201;DHT22;20469;55.638;37.670;2023-05-01T06:25:18;9.90;99.90
34201;DHT22;20469;55.638;37.670;2023-05-01T06:27:45;9.70;99.90
34201;DHT22;20469;55.638;37.670;2023-05-01T06:30:12;9.80;99.90
34201;DHT22;20469;55.638;37.670;2023-05-01T06:32:39;9.70;99.90
34201;DHT22;20469;55.638;37.670;2023-05-01T06:35:09;9.90;99.90
34201;DHT22;20469;55.638;37.670;2023-05-01T06:37:36;10.20;99.90
34201;DHT22;20469;55.638;37.670;2023-05-01T06:40:06;10.20;99.90
34201;DHT22;20469;55.638;37.670;2023-05-01T06:42:33;10.30;99.90
34201;DHT22;20469;55.638;37.670;2023-05-01T06:45:00;10.20;99.90
34201;DHT22;20469;55.638;37.670;2023-05-01T06:47:50;10.40;99.90
34201;DHT22;20469;55.638;37.670;2023-05-01T06:50:18;10.40;99.90
34201;DHT22;20469;55.638;37.670;2023-05-01T06:52:45;10.40;99.90
34201;DHT22;20469;55.638;37.670;2023-05-01T06:55:13;10.30;99.90
34201;DHT22;20469;55.638;37.670;2023-05-01T06:57:40;10.20;99.90
34201;DHT22;20469;55.638;37.670;2023-05-01T07:00:09;10.10;99.90
34201;DHT22;20469;55.638;37.670;2023-05-01T07:02:36;10.30;99.90
34201;DHT22;20469;55.638;37.670;2023-05-01T07:05:04;10.50;99.90
34201;DHT22;20469;55.638;37.670;2023-05-01T07:07:32;11.10;99.90
34201;DHT22;20469;55.638;37.670;2023-05-01T07:09:59;11.20;99.90
34201;DHT22;20469;55.638;37.670;2023-05-01T07:12:27;11.20;99.90
34201;DHT22;20469;55.638;37.670;2023-05-01T07:14:55;11.20;99.90
34201;DHT22;20469;55.638;37.670;2023-05-01T07:17:22;11.30;99.90
34201;DHT22;20469;55.638;37.670;2023-05-01T07:19:50;10.70;99.90
34201;DHT22;20469;55.638;37.670;2023-05-01T07:22:18;11.10;99.90
34201;DHT22;20469;55.638;37.670;2023-05-01T07:24:45;11.70;99.90
34201;DHT22;20469;55.638;37.670;2023-05-01T07:27:12;11.10;99.90
34201;DHT22;20469;55.638;37.670;2023-05-01T07:29:39;10.70;99.90
34201;DHT22;20469;55.638;37.670;2023-05-01T07:32:06;10.80;99.90
34201;DHT22;20469;55.638;37.670;2023-05-01T07:34:34;11.20;99.90
34201;DHT22;20469;55.638;37.670;2023-05-01T07:37:01;10.80;99.90
34201;DHT22;20469;55.638;37.670;2023-05-01T07:39:30;10.70;99.90
34201;DHT22;20469;55.638;37.670;2023-05-01T07:41:58;10.90;99.90
34201;DHT22;20469;55.638;37.670;2023-05-01T07:44:25;10.70;99.90
34201;DHT22;20469;55.638;37.670;2023-05-01T07:46:52;11.10;99.90
34201;DHT22;20469;55.638;37.670;2023-05-01T07:49:19;11.00;99.90
34201;DHT22;20469;55.638;37.670;2023-05-01T07:51:46;11.20;99.90
34201;DHT22;20469;55.638;37.670;2023-05-01T07:54:15;11.60;99.90
34201;DHT22;20469;55.638;37.670;2023-05-01T07:56:42;12.30;99.90
34201;DHT22;20469;55.638;37.670;2023-05-01T07:59:10;11.70;99.90
34201;DHT22;20469;55.638;37.670;2023-05-01T08:01:37;11.80;99.90
34201;DHT22;20469;55.638;37.670;2023-05-01T08:04:04;12.40;99.90
34201;DHT22;20469;55.638;37.670;2023-05-01T08:06:32;12.80;99.90
34201;DHT22;20469;55.638;37.670;2023-05-01T08:08:59;13.00;77.20
34201;DHT22;20469;55.638;37.670;2023-05-01T08:11:45;12.40;55.30
34201;DHT22;20469;55.638;37.670;2023-05-01T08:14:13;12.60;44.10
34201;DHT22;20469;55.638;37.670;2023-05-01T08:16:41;12.70;43.30
34201;DHT22;20469;55.638;37.670;2023-05-01T08:22:12;12.50;25.70
34201;DHT22;20469;55.638;37.670;2023-05-01T08:24:40;12.70;27.90
34201;DHT22;20469;55.638;37.670;2023-05-01T08:27:08;12.10;24.40
34201;DHT22;20469;55.638;37.670;2023-05-01T08:29:36;12.10;32.80
34201;DHT22;20469;55.638;37.670;2023-05-01T08:32:03;12.00;42.80
34201;DHT22;20469;55.638;37.670;2023-05-01T08:34:30;11.80;33.10
34201;DHT22;20469;55.638;37.670;2023-05-01T08:36:58;11.70;27.80
34201;DHT22;20469;55.638;37.670;2023-05-01T08:39:44;11.60;23.30
34201;DHT22;20469;55.638;37.670;2023-05-01T08:42:11;11.80;35.10
34201;DHT22;20469;55.638;37.670;2023-05-01T08:44:40;11.60;34.10
34201;DHT22;20469;55.638;37.670;2023-05-01T08:47:15;12.10;47.90
34201;DHT22;20469;55.638;37.670;2023-05-01T08:49:43;11.90;37.00
34201;DHT22;20469;55.638;37.670;2023-05-01T08:52:12;11.70;39.10
34201;DHT22;20469;55.638;37.670;2023-05-01T08:54:44;12.00;46.60
34201;DHT22;20469;55.638;37.670;2023-05-01T08:57:13;11.90;39.40
34201;DHT22;20469;55.638;37.670;2023-05-01T08:59:41;12.20;34.20
34201;DHT22;20469;55.638;37.670;2023-05-01T09:02:09;11.60;28.30
34201;DHT22;20469;55.638;37.670;2023-05-01T09:04:38;11.40;23.10
34201;DHT22;20469;55.638;37.670;2023-05-01T09:07:07;11.60;28.90
34201;DHT22;20469;55.638;37.670;2023-05-01T09:09:35;11.50;30.00
34201;DHT22;20469;55.638;37.670;2023-05-01T09:14:36;12.30;30.80
34201;DHT22;20469;55.638;37.670;2023-05-01T09:17:04;11.80;19.20
34201;DHT22;20469;55.638;37.670;2023-05-01T09:19:31;12.70;28.20
34201;DHT22;20469;55.638;37.670;2023-05-01T09:21:58;12.40;24.00
34201;DHT22;20469;55.638;37.670;2023-05-01T09:24:26;12.30;13.10
34201;DHT22;20469;55.638;37.670;2023-05-01T09:26:53;12.50;9.70
34201;DHT22;20469;55.638;37.670;2023-05-01T09:29:44;12.70;3.80
34201;DHT22;20469;55.638;37.670;2023-05-01T09:32:16;13.60;4.80
34201;DHT22;20469;55.638;37.670;2023-05-01T09:34:43;13.80;1.00
34201;DHT22;20469;55.638;37.670;2023-05-01T09:37:31;12.50;1.00
34201;DHT22;20469;55.638;37.670;2023-05-01T09:40:13;12.30;1.00
34201;DHT22;20469;55.638;37.670;2023-05-01T09:42:49;12.60;1.00
34201;DHT22;20469;55.638;37.670;2023-05-01T09:45:18;12.40;1.00
34201;DHT22;20469;55.638;37.670;2023-05-01T09:47:46;13.10;1.00
34201;DHT22;20469;55.638;37.670;2023-05-01T09:50:33;13.00;1.00
34201;DHT22;20469;55.638;37.670;2023-05-01T09:53:01;13.20;1.00
34201;DHT22;20469;55.638;37.670;2023-05-01T09:55:31;14.00;1.00
34201;DHT22;20469;55.638;37.670;2023-05-01T09:57:59;14.50;1.00
34201;DHT22;20469;55.638;37.670;2023-05-01T10:00:26;14.90;1.00
34201;DHT22;20469;55.638;37.670;2023-05-01T10:03:12;13.60;1.00
34201;DHT22;20469;55.638;37.670;2023-05-01T10:05:44;13.30;1.00
34201;DHT22;20469;55.638;37.670;2023-05-01T10:08:12;13.40;1.00
34201;DHT22;20469;55.638;37.670;2023-05-01T10:10:41;12.80;1.00
34201;DHT22;20469;55.638;37.670;2023-05-01T10:13:14;12.40;1.00
34201;DHT22;20469;55.638;37.670;2023-05-01T10:15:45;13.00;1.00
34201;DHT22;20469;55.638;37.670;2023-05-01T10:18:13;13.00;1.00
34201;DHT22;20469;55.638;37.670;2023-05-01T10:20:41;12.40;1.00
34201;DHT22;20469;55.638;37.670;2023-05-01T10:23:09;12.10;1.00
34201;DHT22;20469;55.638;37.670;2023-05-01T10:25:37;12.20;1.00
34201;DHT22;20469;55.638;37.670;2023-05-01T10:28:07;12.20;1.00
34201;DHT22;20469;55.638;37.670;2023-05-01T10:30:35;12.00;1.00
34201;DHT22;20469;55.638;37.670;2023-05-01T10:33:04;12.00;1.00
34201;DHT22;20469;55.638;37.670;2023-05-01T10:35:34;11.70;1.00
34201;DHT22;20469;55.638;37.670;2023-05-01T10:38:07;11.50;1.00
34201;DHT22;20469;55.638;37.670;2023-05-01T10:43:23;11.10;3.50
34201;DHT22;20469;55.638;37.670;2023-05-01T10:51:12;10.60;33.20
34201;DHT22;20469;55.638;37.670;2023-05-01T10:53:41;10.50;38.80
34201;DHT22;20469;55.638;37.670;2023-05-01T10:59:01;10.50;60.90
34201;DHT22;20469;55.638;37.670;2023-05-01T11:01:58;10.60;69.20
34201;DHT22;20469;55.638;37.670;2023-05-01T11:09:38;10.50;67.80
34201;DHT22;20469;55.638;37.670;2023-05-01T11:12:08;10.10;61.80
34201;DHT22;20469;55.638;37.670;2023-05-01T11:22:54;9.90;99.90
34201;DHT22;20469;55.638;37.670;2023-05-01T11:25:24;10.30;99.90
34201;DHT22;20469;55.638;37.670;2023-05-01T11:27:55;9.90;99.30
34201;DHT22;20469;55.638;37.670;2023-05-01T11:30:23;9.70;99.90
34201;DHT22;20469;55.638;37.670;2023-05-01T11:32:51;9.40;99.90
34201;DHT22;20469;55.638;37.670;2023-05-01T11:35:23;9.30;99.90
34201;DHT22;20469;55.638;37.670;2023-05-01T11:37:52;9.30;99.90
34201;DHT22;20469;55.638;37.670;2023-05-01T11:40:24;8.80;99.90
34201;DHT22;20469;55.638;37.670;2023-05-01T11:45:31;9.10;99.90
34201;DHT22;20469;55.638;37.670;2023-05-01T11:47:59;9.30;99.90
34201;DHT22;20469;55.638;37.670;2023-05-01T11:50:35;8.90;99.90
34201;DHT22;20469;55.638;37.670;2023-05-01T11:53:09;8.80;99.90
34201;DHT22;20469;55.638;37.670;2023-05-01T11:55:37;8.60;99.90
34201;DHT22;20469;55.638;37.670;2023-05-01T11:58:06;8.70;99.90
34201;DHT22;20469;55.638;37.670;2023-05-01T12:00:35;8.80;99.90
34201;DHT22;20469;55.638;37.670;2023-05-01T12:03:09;8.90;99.90
34201;DHT22;20469;55.638;37.670;2023-05-01T12:05:37;8.60;99.90
34201;DHT22;20469;55.638;37.670;2023-05-01T12:08:15;8.60;99.90
34201;DHT22;20469;55.638;37.670;2023-05-01T12:10:56;8.60;99.90
34201;DHT22;20469;55.638;37.670;2023-05-01T12:13:24;9.00;99.90
34201;DHT22;20469;55.638;37.670;2023-05-01T12:15:54;8.40;99.90
34201;DHT22;20469;55.638;37.670;2023-05-01T12:18:22;8.20;99.90
34201;DHT22;20469;55.638;37.670;2023-05-01T12:20:51;8.00;99.90
34201;DHT22;20469;55.638;37.670;2023-05-01T12:23:29;8.10;99.90
34201;DHT22;20469;55.638;37.670;2023-05-01T12:25:56;7.90;99.90
34201;DHT22;20469;55.638;37.670;2023-05-01T12:28:24;7.80;99.90
34201;DHT22;20469;55.638;37.670;2023-05-01T12:31:10;7.80;99.90
34201;DHT22;20469;55.638;37.670;2023-05-01T12:33:39;7.70;99.90
34201;DHT22;20469;55.638;37.670;2023-05-01T12:36:10;7.90;99.90
34201;DHT22;20469;55.638;37.670;2023-05-01T12:38:37;8.10;99.90
34201;DHT22;20469;55.638;37.670;2023-05-01T12:41:05;8.00;99.90
34201;DHT22;20469;55.638;37.670;2023-05-01T12:43:36;7.90;99.90
34201;DHT22;20469;55.638;37.670;2023-05-01T12:46:04;8.00;99.90
34201;DHT22;20469;55.638;37.670;2023-05-01T12:48:38;7.70;99.90
34201;DHT22;20469;55.638;37.670;2023-05-01T12:51:24;7.60;99.90
34201;DHT22;20469;55.638;37.670;2023-05-01T12:53:53;7.50;99.90
34201;DHT22;20469;55.638;37.670;2023-05-01T12:56:25;7.70;99.90
34201;DHT22;20469;55.638;37.670;2023-05-01T12:58:54;7.50;99.90
34201;DHT22;20469;55.638;37.670;2023-05-01T13:01:24;7.60;99.90
34201;DHT22;20469;55.638;37.670;2023-05-01T13:03:54;7.60;99.90
34201;DHT22;20469;55.638;37.670;2023-05-01T13:06:31;7.60;99.90
34201;DHT22;20469;55.638;37.670;2023-05-01T13:09:08;7.60;99.90
34201;DHT22;20469;55.638;37.670;2023-05-01T13:11:41;7.40;99.90
34201;DHT22;20469;55.638;37.670;2023-05-01T13:14:09;7.40;99.90
34201;DHT22;20469;55.638;37.670;2023-05-01T13:16:44;7.40;99.90
34201;DHT22;20469;55.638;37.670;2023-05-01T13:19:24;7.60;99.90
34201;DHT22;20469;55.638;37.670;2023-05-01T13:21:56;7.70;99.90
34201;DHT22;20469;55.638;37.670;2023-05-01T13:24:36;7.70;99.90
34201;DHT22;20469;55.638;37.670;2023-05-01T13:27:04;8.00;99.90
34201;DHT22;20469;55.638;37.670;2023-05-01T13:29:32;8.10;99.90
34201;DHT22;20469;55.638;37.670;2023-05-01T13:32:04;8.60;99.90
34201;DHT22;20469;55.638;37.670;2023-05-01T13:34:33;8.20;99.90
34201;DHT22;20469;55.638;37.670;2023-05-01T13:37:01;8.10;99.90
34201;DHT22;20469;55.638;37.670;2023-05-01T13:39:28;8.30;99.90
34201;DHT22;20469;55.638;37.670;2023-05-01T13:44:51;8.30;99.90
34201;DHT22;20469;55.638;37.670;2023-05-01T13:47:22;8.10;99.90
34201;DHT22;20469;55.638;37.670;2023-05-01T13:49:52;8.40;99.90
34201;DHT22;20469;55.638;37.670;2023-05-01T13:52:19;8.50;99.90
34201;DHT22;20469;55.638;37.670;2023-05-01T13:54:47;8.70;99.90
34201;DHT22;20469;55.638;37.670;2023-05-01T13:57:15;8.90;99.90
34201;DHT22;20469;55.638;37.670;2023-05-01T13:59:44;8.70;99.90
34201;DHT22;20469;55.638;37.670;2023-05-01T14:02:19;9.00;99.90
34201;DHT22;20469;55.638;37.670;2023-05-01T14:04:47;8.70;99.90
34201;DHT22;20469;55.638;37.670;2023-05-01T14:07:23;8.80;99.90
34201;DHT22;20469;55.638;37.670;2023-05-01T14:09:56;8.60;99.90
34201;DHT22;20469;55.638;37.670;2023-05-01T14:12:31;8.30;99.90
34201;DHT22;20469;55.638;37.670;2023-05-01T14:14:59;8.50;99.90
34201;DHT22;20469;55.638;37.670;2023-05-01T14:17:33;8.70;99.90
34201;DHT22;20469;55.638;37.670;2023-05-01T14:20:05;8.60;99.90
34201;DHT22;20469;55.638;37.670;2023-05-01T14:22:41;9.20;99.90
34201;DHT22;20469;55.638;37.670;2023-05-01T14:25:29;9.00;99.90
34201;DHT22;20469;55.638;37.670;2023-05-01T14:27:58;8.90;99.90
34201;DHT22;20469;55.638;37.670;2023-05-01T14:30:31;8.70;99.90
34201;DHT22;20469;55.638;37.670;2023-05-01T14:33:11;8.60;99.90
34201;DHT22;20469;55.638;37.670;2023-05-01T14:35:52;8.60;99.90
34201;DHT22;20469;55.638;37.670;2023-05-01T14:38:23;8.70;99.90
34201;DHT22;20469;55.638;37.670;2023-05-01T14:41:10;8.50;99.90
34201;DHT22;20469;55.638;37.670;2023-05-01T14:43:40;8.60;99.90
34201;DHT22;20469;55.638;37.670;2023-05-01T14:46:11;8.50;99.90
34201;DHT22;20469;55.638;37.670;2023-05-01T14:48:40;8.70;99.90
34201;DHT22;20469;55.638;37.670;2023-05-01T14:51:11;8.60;99.90
34201;DHT22;20469;55.638;37.670;2023-05-01T14:53:39;8.70;99.90
34201;DHT22;20469;55.638;37.670;2023-05-01T14:56:10;8.50;99.90
34201;DHT22;20469;55.638;37.670;2023-05-01T14:58:38;8.60;99.90
34201;DHT22;20469;55.638;37.670;2023-05-01T15:01:06;8.60;99.90
34201;DHT22;20469;55.638;37.670;2023-05-01T15:03:34;8.50;99.90
34201;DHT22;20469;55.638;37.670;2023-05-01T15:06:07;8.60;96.80
34201;DHT22;20469;55.638;37.670;2023-05-01T15:08:35;8.60;91.60
34201;DHT22;20469;55.638;37.670;2023-05-01T15:11:04;8.80;88.90
34201;DHT22;20469;55.638;37.670;2023-05-01T15:13:31;8.60;56.00
34201;DHT22;20469;55.638;37.670;2023-05-01T15:15:58;8.60;45.50
34201;DHT22;20469;55.638;37.670;2023-05-01T15:18:25;8.60;33.80
34201;DHT22;20469;55.638;37.670;2023-05-01T15:20:52;8.60;25.90
34201;DHT22;20469;55.638;37.670;2023-05-01T15:23:20;8.50;17.00
34201;DHT22;20469;55.638;37.670;2023-05-01T15:25:47;8.50;10.50
34201;DHT22;20469;55.638;37.670;2023-05-01T15:28:16;8.50;4.00
34201;DHT22;20469;55.638;37.670;2023-05-01T15:30:45;8.50;1.00
34201;DHT22;20469;55.638;37.670;2023-05-01T15:33:13;8.60;1.00
34201;DHT22;20469;55.638;37.670;2023-05-01T15:35:45;8.60;1.00
34201;DHT22;20469;55.638;37.670;2023-05-01T15:38:13;8.60;1.00
34201;DHT22;20469;55.638;37.670;2023-05-01T15:40:42;8.60;1.00
34201;DHT22;20469;55.638;37.670;2023-05-01T15:43:09;8.50;1.00
34201;DHT22;20469;55.638;37.670;2023-05-01T15:45:36;8.50;1.00
34201;DHT22;20469;55.638;37.670;2023-05-01T15:48:09;8.50;1.00
34201;DHT22;20469;55.638;37.670;2023-05-01T15:50:39;8.50;1.00
34201;DHT22;20469;55.638;37.670;2023-05-01T15:53:06;8.70;1.90
34201;DHT22;20469;55.638;37.670;2023-05-01T15:55:34;8.60;1.00
34201;DHT22;20469;55.638;37.670;2023-05-01T15:58:02;8.80;5.20
34201;DHT22;20469;55.638;37.670;2023-05-01T16:00:30;8.60;1.00
34201;DHT22;20469;55.638;37.670;2023-05-01T16:03:00;8.40;1.00
34201;DHT22;20469;55.638;37.670;2023-05-01T16:05:30;8.40;1.10
34201;DHT22;20469;55.638;37.670;2023-05-01T16:07:59;8.30;1.00
34201;DHT22;20469;55.638;37.670;2023-05-01T16:10:27;8.30;3.20
34201;DHT22;20469;55.638;37.670;2023-05-01T16:12:54;8.30;1.70
34201;DHT22;20469;55.638;37.670;2023-05-01T16:18:11;8.20;7.00
34201;DHT22;20469;55.638;37.670;2023-05-01T16:20:41;8.40;12.80
34201;DHT22;20469;55.638;37.670;2023-05-01T16:23:10;8.30;12.40
34201;DHT22;20469;55.638;37.670;2023-05-01T16:25:43;8.30;17.90
34201;DHT22;20469;55.638;37.670;2023-05-01T16:28:11;8.30;15.80
34201;DHT22;20469;55.638;37.670;2023-05-01T16:30:42;8.30;15.90
34201;DHT22;20469;55.638;37.670;2023-05-01T16:33:17;8.30;13.90
34201;DHT22;20469;55.638;37.670;2023-05-01T16:35:48;8.20;15.50
34201;DHT22;20469;55.638;37.670;2023-05-01T16:38:16;8.20;20.40
34201;DHT22;20469;55.638;37.670;2023-05-01T16:40:46;8.30;25.20
34201;DHT22;20469;55.638;37.670;2023-05-01T16:43:14;8.10;20.60
34201;DHT22;20469;55.638;37.670;2023-05-01T16:45:42;8.40;24.80